Time;durP1;ratioP1;P1;durP2;ratioP2;P2;SDS_P1;SDS_P2;PMS_P1;PMS_P2;Temp;Humidity;BMP_temperature;BMP_pressure;BME280_temperature;BME280_humidity;BME280_pressure;Samples;Min_cycle;Max_cycle;Signal;HPM_P1;HPM_P2
2021/06/23 18:57:05;;;;;;;26.13;6.00;;;;;;;;;;5067726;28;20385;-67
2021/06/23 18:59:31;;;;;;;23.90;7.72;;;;;;;;;;5066051;28;20567;-68
2021/06/23 19:01:57;;;;;;;23.10;7.10;;;;;;;;;;5066894;28;20021;-68
2021/06/23 19:04:23;;;;;;;28.80;8.25;;;;;;;;;;5067012;28;20060;-67
2021/06/23 19:06:49;;;;;;;26.60;8.70;;;;;;;;;;5065903;28;20036;-66
2021/06/23 19:09:15;;;;;;;22.27;7.55;;;;;;;;;;5066304;28;20075;-66
2021/06/23 19:11:41;;;;;;;24.45;7.82;;;;;;;;;;5067144;28;20029;-68
2021/06/23 19:14:09;;;;;;;25.45;7.40;;;;;;;;;;5066754;28;20031;-66
2021/06/23 19:16:36;;;;;;;23.65;7.63;;;;;;;;;;5067176;28;20033;-67
2021/06/23 19:19:02;;;;;;;26.80;6.55;;;;;;;;;;5065916;28;20029;-65
2021/06/23 19:21:29;;;;;;;28.48;7.65;;;;;;;;;;5054624;28;20565;-65
2021/06/23 19:23:55;;;;;;;20.10;6.78;;;;;;;;;;5046922;28;20041;-65
2021/06/23 19:26:21;;;;;;;27.27;8.30;;;;;;;;;;5047993;28;20037;-66
2021/06/23 19:28:50;;;;;;;28.90;8.75;;;;;;;;;;5047356;28;20068;-66
2021/06/23 19:31:17;;;;;;;23.10;8.38;;;;;;;;;;5047719;28;20036;-65
2021/06/23 19:33:43;;;;;;;27.15;9.18;;;;;;;;;;5047251;28;20040;-67
2021/06/23 19:36:09;;;;;;;28.27;9.50;;;;;;;;;;5046047;28;20041;-65
2021/06/23 19:38:35;;;;;;;28.48;8.48;;;;;;;;;;5047755;28;20106;-66
2021/06/23 19:41:01;;;;;;;23.20;7.32;;;;;;;;;;5047362;28;20036;-66
2021/06/23 19:43:27;;;;;;;24.42;7.50;;;;;;;;;;5046979;28;20104;-64
2021/06/23 19:45:53;;;;;;;26.42;6.53;;;;;;;;;;5047818;28;20496;-64
2021/06/23 19:48:19;;;;;;;28.67;6.68;;;;;;;;;;5046935;28;20021;-66
2021/06/23 19:50:46;;;;;;;24.90;6.65;;;;;;;;;;5047477;28;20503;-66
2021/06/23 19:53:12;;;;;;;27.52;7.28;;;;;;;;;;5047645;28;20451;-66
2021/06/23 19:55:39;;;;;;;22.40;5.93;;;;;;;;;;5045222;28;20045;-66
2021/06/23 19:58:05;;;;;;;25.80;6.70;;;;;;;;;;5047320;28;20032;-65
2021/06/23 20:00:31;;;;;;;19.77;6.22;;;;;;;;;;5047322;28;20061;-67
2021/06/23 20:02:57;;;;;;;20.10;5.80;;;;;;;;;;5046915;28;20036;-66
2021/06/23 20:05:24;;;;;;;26.13;6.65;;;;;;;;;;5046550;28;20114;-66
2021/06/23 20:07:50;;;;;;;22.63;6.32;;;;;;;;;;5029761;28;20041;-66
2021/06/23 20:10:17;;;;;;;19.48;5.05;;;;;;;;;;5013307;28;20026;-67
2021/06/23 20:12:43;;;;;;;21.02;5.72;;;;;;;;;;5013536;28;20037;-68
2021/06/23 20:15:10;;;;;;;20.75;5.68;;;;;;;;;;5013210;28;20018;-68
2021/06/23 20:17:36;;;;;;;19.40;5.32;;;;;;;;;;5013544;28;20076;-68
2021/06/23 20:20:07;;;;;;;22.50;6.55;;;;;;;;;;5013340;28;20030;-67
2021/06/23 20:22:33;;;;;;;17.63;5.22;;;;;;;;;;5013297;28;20030;-68
2021/06/23 20:25:00;;;;;;;20.67;5.28;;;;;;;;;;5013343;28;20042;-67
2021/06/23 20:27:26;;;;;;;18.70;4.88;;;;;;;;;;5013794;28;20033;-66
2021/06/23 20:29:53;;;;;;;21.92;4.78;;;;;;;;;;5013103;28;20033;-65
2021/06/23 20:32:19;;;;;;;19.17;5.50;;;;;;;;;;5013053;28;20022;-68
2021/06/23 20:34:45;;;;;;;23.80;5.40;;;;;;;;;;5011335;28;20388;-69
2021/06/23 20:37:13;;;;;;;26.02;6.50;;;;;;;;;;5013010;28;20092;-67
2021/06/23 20:39:42;;;;;;;22.65;5.60;;;;;;;;;;5028502;28;20029;-66
2021/06/23 20:42:08;;;;;;;22.08;6.70;;;;;;;;;;5031039;28;20022;-67
2021/06/23 20:44:34;;;;;;;19.92;5.40;;;;;;;;;;5031231;28;20029;-68
2021/06/23 20:47:00;;;;;;;27.40;8.13;;;;;;;;;;5032018;28;20100;-67
2021/06/23 20:49:26;;;;;;;26.08;6.07;;;;;;;;;;5032236;28;20102;-67
2021/06/23 20:51:52;;;;;;;28.38;6.30;;;;;;;;;;5032300;28;20422;-68
2021/06/23 20:54:19;;;;;;;22.70;5.90;;;;;;;;;;5031410;28;20511;-68
2021/06/23 20:56:45;;;;;;;18.05;4.78;;;;;;;;;;5031401;28;20492;-68
2021/06/23 20:59:11;;;;;;;19.25;5.43;;;;;;;;;;5031882;28;20522;-67
2021/06/23 21:01:38;;;;;;;24.33;5.38;;;;;;;;;;5032204;28;20025;-66
2021/06/23 21:04:06;;;;;;;21.90;5.55;;;;;;;;;;5031598;28;20029;-68
2021/06/23 21:06:32;;;;;;;21.70;6.32;;;;;;;;;;5030694;28;20026;-65
2021/06/23 21:08:59;;;;;;;31.58;6.80;;;;;;;;;;5031155;28;20548;-67
2021/06/23 21:11:39;;;;;;;20.02;6.22;;;;;;;;;;5030688;28;20034;-67
2021/06/23 21:14:17;;;;;;;22.70;6.43;;;;;;;;;;5029175;28;20029;-65
2021/06/23 21:16:43;;;;;;;18.85;5.75;;;;;;;;;;5029544;28;20075;-67
2021/06/23 21:19:09;;;;;;;19.55;5.30;;;;;;;;;;5029710;28;20025;-70
2021/06/23 21:21:41;;;;;;;20.88;5.90;;;;;;;;;;5030363;28;20108;-66
2021/06/23 21:24:23;;;;;;;21.85;6.00;;;;;;;;;;5031531;28;20065;-67
2021/06/23 21:26:49;;;;;;;;;;;;;;;;;;5032377;28;20029;-66
2021/06/23 21:29:15;;;;;;;23.60;5.55;;;;;;;;;;5031164;28;19912;-67
2021/06/23 21:31:42;;;;;;;20.15;5.88;;;;;;;;;;5030931;28;20026;-65
2021/06/23 21:34:11;;;;;;;18.15;4.90;;;;;;;;;;5031163;28;20029;-68
2021/06/23 21:36:40;;;;;;;24.40;6.68;;;;;;;;;;5030434;28;20179;-67
2021/06/23 21:39:08;;;;;;;18.33;5.85;;;;;;;;;;5029206;28;20087;-67
2021/06/23 21:41:45;;;;;;;21.70;6.20;;;;;;;;;;5030077;28;20400;-67
2021/06/23 21:44:15;;;;;;;18.98;6.18;;;;;;;;;;5030143;28;20074;-66
2021/06/23 21:46:42;;;;;;;21.67;6.30;;;;;;;;;;5027200;28;20026;-67
2021/06/23 21:49:27;;;;;;;24.33;5.68;;;;;;;;;;5031412;28;20409;-66
2021/06/23 21:52:06;;;;;;;19.08;5.22;;;;;;;;;;5031838;28;20218;-68
2021/06/23 21:54:44;;;;;;;24.05;6.30;;;;;;;;;;5030580;28;20088;-68
2021/06/23 21:57:23;;;;;;;20.58;5.47;;;;;;;;;;5031334;28;20497;-68
2021/06/23 21:59:51;;;;;;;18.77;4.82;;;;;;;;;;5031311;28;20882;-67
2021/06/23 22:02:18;;;;;;;17.50;5.10;;;;;;;;;;5031085;28;20025;-68
2021/06/23 22:05:03;;;;;;;20.35;4.93;;;;;;;;;;5031457;28;20057;-68
2021/06/23 22:07:33;;;;;;;24.60;5.30;;;;;;;;;;5031452;28;20033;-69
2021/06/23 22:10:00;;;;;;;20.52;4.53;;;;;;;;;;5031279;28;20071;-69
2021/06/23 22:12:28;;;;;;;23.17;5.13;;;;;;;;;;5031387;28;20124;-69
2021/06/23 22:14:55;;;;;;;12.48;4.63;;;;;;;;;;5031309;28;20508;-68
2021/06/23 22:17:22;;;;;;;24.55;5.85;;;;;;;;;;5030312;28;20022;-68
2021/06/23 22:19:48;;;;;;;20.02;4.82;;;;;;;;;;5025162;28;20025;-69
2021/06/23 22:22:16;;;;;;;13.70;4.45;;;;;;;;;;5025059;28;20405;-68
2021/06/23 22:24:42;;;;;;;17.10;4.25;;;;;;;;;;5025400;28;20151;-69
2021/06/23 22:27:09;;;;;;;15.70;4.15;;;;;;;;;;5026951;28;20129;-69
2021/06/23 22:29:36;;;;;;;22.58;4.65;;;;;;;;;;5029006;28;20108;-68
2021/06/23 22:32:03;;;;;;;16.27;3.88;;;;;;;;;;5031488;28;20026;-68
2021/06/23 22:34:32;;;;;;;19.60;4.93;;;;;;;;;;5031336;28;20162;-67
2021/06/23 22:37:02;;;;;;;18.35;4.95;;;;;;;;;;5031196;28;20026;-69
2021/06/23 22:39:29;;;;;;;19.35;5.28;;;;;;;;;;5031236;28;20029;-68
2021/06/23 22:42:12;;;;;;;17.77;5.20;;;;;;;;;;5031498;28;20044;-67
2021/06/23 22:45:04;;;;;;;15.90;4.68;;;;;;;;;;5031310;28;20108;-69
2021/06/23 22:47:41;;;;;;;20.75;6.68;;;;;;;;;;5030199;28;20069;-68
2021/06/23 22:53:20;;;;;;;33.75;16.85;;;;;;;;;;5031179;28;20038;-69
2021/06/23 22:55:31;;;;;;;28.27;11.20;;;;;;;;;;5027848;28;20058;-68
2021/06/23 22:58:03;;;;;;;20.13;8.00;;;;;;;;;;5031267;28;20550;-68
2021/06/23 23:00:29;;;;;;;21.50;6.50;;;;;;;;;;5031389;28;20377;-69
2021/06/23 23:02:56;;;;;;;19.10;7.10;;;;;;;;;;5031189;28;20030;-70
2021/06/23 23:05:23;;;;;;;20.95;6.43;;;;;;;;;;5030914;28;20047;-69
2021/06/23 23:07:51;;;;;;;19.52;6.00;;;;;;;;;;5030782;28;20029;-70
2021/06/23 23:10:18;;;;;;;25.17;6.50;;;;;;;;;;5031049;28;20037;-70
2021/06/23 23:12:44;;;;;;;23.90;6.18;;;;;;;;;;5030683;28;20034;-69
2021/06/23 23:15:11;;;;;;;16.60;5.60;;;;;;;;;;5030651;28;20034;-68
2021/06/23 23:17:38;;;;;;;17.50;5.18;;;;;;;;;;5029662;28;20496;-68
2021/06/23 23:20:06;;;;;;;19.73;5.93;;;;;;;;;;5029631;28;20041;-68
2021/06/23 23:22:32;;;;;;;22.00;4.93;;;;;;;;;;5030321;28;20036;-70
2021/06/23 23:24:58;;;;;;;21.83;5.22;;;;;;;;;;5030468;28;20087;-69
2021/06/23 23:27:24;;;;;;;17.83;5.05;;;;;;;;;;5030807;28;20424;-69
2021/06/23 23:29:50;;;;;;;24.48;5.05;;;;;;;;;;5030764;28;20056;-68
2021/06/23 23:32:16;;;;;;;18.27;4.78;;;;;;;;;;5030779;28;20111;-68
2021/06/23 23:34:42;;;;;;;18.42;5.22;;;;;;;;;;5030816;28;20026;-68
2021/06/23 23:37:08;;;;;;;25.02;4.88;;;;;;;;;;5030794;28;20121;-68
2021/06/23 23:39:36;;;;;;;23.40;5.32;;;;;;;;;;5030737;28;20048;-68
2021/06/23 23:42:02;;;;;;;15.93;4.22;;;;;;;;;;5031467;28;20076;-69
2021/06/23 23:44:28;;;;;;;20.52;4.97;;;;;;;;;;5034311;28;20384;-68
2021/06/23 23:46:54;;;;;;;22.13;4.75;;;;;;;;;;5034597;28;20080;-69
2021/06/23 23:49:20;;;;;;;20.20;4.40;;;;;;;;;;5034411;28;20022;-69
2021/06/23 23:51:46;;;;;;;18.73;5.32;;;;;;;;;;5034333;28;20064;-70
2021/06/23 23:54:12;;;;;;;18.58;5.07;;;;;;;;;;5034170;28;20028;-69
2021/06/23 23:56:38;;;;;;;21.42;5.10;;;;;;;;;;5033805;28;20383;-70
2021/06/23 23:59:04;;;;;;;20.13;5.55;;;;;;;;;;5034144;28;20021;-69
